EZY574X EGAA-EGPH
Flight info
| Callsign | EZY574X |
|---|---|
| Flight time | N/A |
| Altitude | 17000 |
| Route | BLACA P600 TUNSO |
| Aircraft | A320/M-SDE2E3FGHIJ1RWXYZ/LB1 |
Departure
| Time | 2026-04-28 15:21 |
|---|---|
| Airport | Belfast International Airport (EGAA) |
Arrival
| Time | N/A |
|---|---|
| Airport | Edinburgh Airport (EGPH) |
| Time | Latitude | Longitude | Altitude | Speed | Heading |
|---|---|---|---|---|---|
| 2026-04-28 15:03 | 54.65996 | -6.21772 | 272 ft | 0 kts | 245° |
| 2026-04-28 15:11 | 54.65996 | -6.21771 | 272 ft | 0 kts | 245° |
| 2026-04-28 15:11 | 54.66005 | -6.21738 | 272 ft | 4 kts | 245° |
| 2026-04-28 15:12 | 54.66017 | -6.21695 | 275 ft | 4 kts | 245° |
| 2026-04-28 15:12 | 54.66027 | -6.21657 | 278 ft | 1 kts | 245° |
| 2026-04-28 15:12 | 54.66027 | -6.21656 | 278 ft | 0 kts | 245° |
| 2026-04-28 15:15 | 54.66025 | -6.21657 | 276 ft | 0 kts | 218° |
| 2026-04-28 15:15 | 54.66019 | -6.21650 | 273 ft | 2 kts | 155° |
| 2026-04-28 15:15 | 54.65984 | -6.21614 | 272 ft | 9 kts | 155° |
| 2026-04-28 15:16 | 54.65926 | -6.21621 | 273 ft | 9 kts | 221° |
| 2026-04-28 15:16 | 54.65897 | -6.21711 | 272 ft | 8 kts | 245° |
| 2026-04-28 15:16 | 54.65874 | -6.21798 | 272 ft | 8 kts | 245° |
| 2026-04-28 15:16 | 54.65847 | -6.21898 | 276 ft | 13 kts | 245° |
| 2026-04-28 15:17 | 54.65798 | -6.22081 | 272 ft | 20 kts | 246° |
| 2026-04-28 15:17 | 54.65767 | -6.22301 | 272 ft | 18 kts | 262° |
| 2026-04-28 15:17 | 54.65752 | -6.22506 | 272 ft | 16 kts | 263° |
| 2026-04-28 15:17 | 54.65743 | -6.22691 | 272 ft | 15 kts | 267° |
| 2026-04-28 15:18 | 54.65724 | -6.22854 | 272 ft | 13 kts | 246° |
| 2026-04-28 15:18 | 54.65673 | -6.22989 | 275 ft | 15 kts | 233° |
| 2026-04-28 15:18 | 54.65600 | -6.23160 | 272 ft | 20 kts | 233° |
| 2026-04-28 15:18 | 54.65517 | -6.23328 | 272 ft | 15 kts | 210° |
| 2026-04-28 15:19 | 54.65423 | -6.23395 | 272 ft | 14 kts | 201° |
| 2026-04-28 15:19 | 54.65328 | -6.23370 | 272 ft | 15 kts | 155° |
| 2026-04-28 15:19 | 54.65298 | -6.23257 | 272 ft | 5 kts | 76° |
| 2026-04-28 15:19 | 54.65307 | -6.23222 | 275 ft | 0 kts | 65° |
| 2026-04-28 15:20 | 54.65307 | -6.23221 | 275 ft | 1 kts | 65° |
| 2026-04-28 15:20 | 54.65382 | -6.22939 | 272 ft | 62 kts | 65° |
| 2026-04-28 15:20 | 54.65659 | -6.21909 | 275 ft | 123 kts | 65° |
| 2026-04-28 15:20 | 54.66076 | -6.20363 | 507 ft | 149 kts | 67° |
| 2026-04-28 15:21 | 54.66488 | -6.18784 | 1220 ft | 146 kts | 66° |
| 2026-04-28 15:21 | 54.66937 | -6.17114 | 1656 ft | 163 kts | 67° |
| 2026-04-28 15:21 | 54.67418 | -6.15188 | 1933 ft | 186 kts | 69° |
| 2026-04-28 15:21 | 54.67905 | -6.12974 | 2276 ft | 208 kts | 70° |
| 2026-04-28 15:22 | 54.68433 | -6.10497 | 2644 ft | 232 kts | 70° |
| 2026-04-28 15:22 | 54.69009 | -6.07782 | 3304 ft | 245 kts | 70° |
| 2026-04-28 15:22 | 54.69604 | -6.04994 | 4234 ft | 248 kts | 70° |
| 2026-04-28 15:22 | 54.70207 | -6.02176 | 5132 ft | 252 kts | 70° |
| 2026-04-28 15:23 | 54.70825 | -5.99302 | 5993 ft | 256 kts | 70° |
| 2026-04-28 15:23 | 54.71446 | -5.96398 | 6894 ft | 259 kts | 70° |
| 2026-04-28 15:23 | 54.72072 | -5.93457 | 7747 ft | 261 kts | 70° |
| 2026-04-28 15:23 | 54.72703 | -5.90502 | 8608 ft | 264 kts | 70° |
| 2026-04-28 15:24 | 54.73341 | -5.87514 | 9476 ft | 266 kts | 70° |
| 2026-04-28 15:24 | 54.73984 | -5.84495 | 10349 ft | 268 kts | 69° |
| 2026-04-28 15:24 | 54.74640 | -5.81419 | 10908 ft | 282 kts | 69° |
| 2026-04-28 15:24 | 54.75343 | -5.78108 | 11168 ft | 303 kts | 69° |
| 2026-04-28 15:25 | 54.76082 | -5.74626 | 11775 ft | 311 kts | 69° |
| 2026-04-28 15:25 | 54.76822 | -5.71141 | 12521 ft | 314 kts | 69° |
| 2026-04-28 15:25 | 54.77576 | -5.67572 | 13277 ft | 317 kts | 69° |
| 2026-04-28 15:25 | 54.78332 | -5.63979 | 14037 ft | 319 kts | 69° |
| 2026-04-28 15:26 | 54.79091 | -5.60366 | 14728 ft | 321 kts | 69° |
| 2026-04-28 15:26 | 54.79856 | -5.56717 | 15385 ft | 323 kts | 69° |
| 2026-04-28 15:26 | 54.80626 | -5.53038 | 16044 ft | 325 kts | 69° |
| 2026-04-28 15:26 | 54.81398 | -5.49341 | 16692 ft | 327 kts | 69° |
| 2026-04-28 15:27 | 54.82175 | -5.45622 | 17272 ft | 330 kts | 69° |
| 2026-04-28 15:27 | 54.82957 | -5.41876 | 17442 ft | 328 kts | 69° |
| 2026-04-28 15:27 | 54.83716 | -5.38239 | 17474 ft | 316 kts | 69° |
| 2026-04-28 15:27 | 54.84458 | -5.34675 | 17479 ft | 313 kts | 69° |
| 2026-04-28 15:28 | 54.85192 | -5.31131 | 17477 ft | 312 kts | 69° |
| 2026-04-28 15:28 | 54.85926 | -5.27585 | 17470 ft | 312 kts | 69° |
| 2026-04-28 15:28 | 54.86656 | -5.24046 | 17468 ft | 312 kts | 69° |
| 2026-04-28 15:28 | 54.87408 | -5.20517 | 17464 ft | 311 kts | 65° |
| 2026-04-28 15:29 | 54.88519 | -5.17305 | 17470 ft | 311 kts | 52° |
| 2026-04-28 15:29 | 54.90060 | -5.14679 | 17457 ft | 313 kts | 39° |
| 2026-04-28 15:29 | 54.91945 | -5.12766 | 17473 ft | 315 kts | 29° |
| 2026-04-28 15:29 | 54.93911 | -5.11088 | 17475 ft | 315 kts | 29° |